Time;durP1;ratioP1;P1;durP2;ratioP2;P2;SDS_P1;SDS_P2;PMS_P1;PMS_P2;Temp;Humidity;BMP_temperature;BMP_pressure;BME280_temperature;BME280_humidity;BME280_pressure;Samples;Min_cycle;Max_cycle;Signal;HPM_P1;HPM_P2
2023/12/09 00:00:48;;;;;;;8.20;3.83;;;9.60;99.90;;;;;;5053384;28;20121;-75
2023/12/09 00:03:14;;;;;;;0.98;0.95;;;9.70;99.90;;;;;;5053505;28;20481;-75
2023/12/09 00:05:40;;;;;;;8.35;1.70;;;9.60;99.90;;;;;;5053552;28;20491;-75
2023/12/09 00:08:06;;;;;;;0.70;0.70;;;9.70;99.90;;;;;;5052322;28;20032;-76
2023/12/09 00:10:32;;;;;;;3.22;2.22;;;9.60;99.90;;;;;;5053320;28;20104;-76
2023/12/09 00:12:57;;;;;;;13.15;1.33;;;9.60;99.90;;;;;;5052625;28;20024;-76
2023/12/09 00:15:23;;;;;;;5.57;1.20;;;9.70;99.90;;;;;;5052977;28;20524;-73
2023/12/09 00:17:49;;;;;;;8.00;1.45;;;9.70;99.90;;;;;;5053438;28;20183;-76
2023/12/09 00:20:15;;;;;;;0.45;0.43;;;9.70;99.90;;;;;;5053255;28;20059;-76
2023/12/09 00:22:42;;;;;;;0.95;0.85;;;9.70;99.90;;;;;;5053116;28;20021;-75
2023/12/09 00:25:08;;;;;;;0.47;0.38;;;9.60;99.90;;;;;;5053130;28;20025;-76
2023/12/09 00:27:37;;;;;;;1.92;1.08;;;9.70;99.90;;;;;;5053034;28;20416;-76
2023/12/09 00:30:04;;;;;;;0.57;0.57;;;9.70;99.90;;;;;;5053089;28;20374;-76
2023/12/09 00:32:30;;;;;;;14.65;1.95;;;9.60;99.90;;;;;;5052971;28;20079;-76
2023/12/09 00:34:56;;;;;;;2.60;0.80;;;9.70;99.90;;;;;;5051894;28;20389;-76
2023/12/09 00:37:22;;;;;;;1.05;0.98;;;9.60;99.90;;;;;;5052973;28;20378;-75
2023/12/09 00:39:47;;;;;;;25.77;1.75;;;9.50;99.90;;;;;;5053060;28;20028;-76
2023/12/09 00:42:13;;;;;;;2.40;0.95;;;9.50;99.90;;;;;;5051801;28;20477;-76
2023/12/09 00:44:39;;;;;;;4.13;2.33;;;9.60;99.90;;;;;;5052582;28;20017;-76
2023/12/09 00:47:05;;;;;;;0.08;0.08;;;9.50;99.90;;;;;;5052841;28;20041;-76
2023/12/09 00:49:31;;;;;;;0.32;0.32;;;9.50;99.90;;;;;;5052750;28;20025;-75
2023/12/09 00:51:56;;;;;;;23.77;1.70;;;9.40;99.90;;;;;;5052904;28;20033;-76
2023/12/09 00:54:22;;;;;;;1.30;0.70;;;9.40;99.90;;;;;;5052758;28;20050;-76
2023/12/09 00:56:48;;;;;;;2.53;1.33;;;9.40;99.90;;;;;;5051420;28;20035;-77
2023/12/09 00:59:14;;;;;;;0.80;0.28;;;9.40;99.90;;;;;;5052514;28;20376;-76
2023/12/09 01:01:39;;;;;;;9.40;2.15;;;9.40;99.90;;;;;;5052460;28;20473;-76
2023/12/09 01:04:05;;;;;;;0.38;0.38;;;9.40;99.90;;;;;;5052757;28;20440;-76
2023/12/09 01:06:31;;;;;;;6.50;0.98;;;9.30;99.90;;;;;;5052612;28;20091;-76
2023/12/09 01:08:57;;;;;;;0.00;0.00;;;9.30;99.90;;;;;;5051269;28;20492;-76
2023/12/09 01:11:24;;;;;;;0.90;0.90;;;9.30;99.90;;;;;;5051125;28;20100;-76
2023/12/09 01:13:50;;;;;;;5.25;4.50;;;9.30;99.90;;;;;;5050894;28;20028;-76
2023/12/09 01:16:16;;;;;;;7.68;1.67;;;9.40;99.90;;;;;;5052600;28;20037;-76
2023/12/09 01:18:42;;;;;;;0.77;0.68;;;9.30;99.90;;;;;;5052301;28;20048;-76
2023/12/09 01:21:08;;;;;;;0.82;0.82;;;9.40;99.90;;;;;;5051140;28;20037;-76
2023/12/09 01:23:33;;;;;;;7.93;3.92;;;9.30;99.90;;;;;;5052361;28;20141;-76
2023/12/09 01:25:59;;;;;;;2.20;0.88;;;9.30;99.90;;;;;;5052376;28;20035;-76
2023/12/09 01:28:25;;;;;;;8.45;0.88;;;9.30;99.90;;;;;;5052064;28;20021;-76
2023/12/09 01:30:51;;;;;;;9.55;2.05;;;9.30;99.90;;;;;;5052307;28;20060;-76
2023/12/09 01:33:16;;;;;;;0.73;0.47;;;9.30;99.90;;;;;;5051176;28;20501;-77
2023/12/09 01:35:42;;;;;;;3.75;2.13;;;9.30;99.90;;;;;;5052254;28;20031;-75
2023/12/09 01:38:08;;;;;;;25.75;2.35;;;9.20;99.90;;;;;;5052290;28;20029;-76
2023/12/09 01:40:34;;;;;;;0.05;0.03;;;9.30;99.90;;;;;;5052415;28;20504;-76
2023/12/09 01:42:59;;;;;;;2.67;0.98;;;9.30;99.90;;;;;;5051875;28;20029;-77
2023/12/09 01:45:25;;;;;;;5.20;1.63;;;9.30;99.90;;;;;;5052489;28;20462;-76
2023/12/09 01:47:51;;;;;;;6.25;1.52;;;9.20;99.90;;;;;;5051954;28;20079;-76
2023/12/09 01:50:17;;;;;;;3.95;1.38;;;9.20;99.90;;;;;;5051077;28;20486;-76
2023/12/09 01:52:43;;;;;;;4.10;1.88;;;9.20;99.90;;;;;;5050486;28;20116;-75
2023/12/09 01:55:10;;;;;;;2.20;1.30;;;9.30;99.90;;;;;;5050920;28;20021;-76
2023/12/09 01:57:36;;;;;;;7.53;2.28;;;9.20;99.90;;;;;;5051943;28;20037;-76
2023/12/09 02:00:03;;;;;;;1.95;1.20;;;9.10;99.90;;;;;;5050742;28;20032;-76
2023/12/09 02:02:30;;;;;;;0.70;0.47;;;9.10;99.90;;;;;;5050912;28;20029;-76
2023/12/09 02:04:58;;;;;;;0.45;0.38;;;9.20;99.90;;;;;;5051639;28;20401;-76
2023/12/09 02:07:24;;;;;;;1.70;0.82;;;9.20;99.90;;;;;;5051012;28;20033;-76
2023/12/09 02:09:50;;;;;;;2.83;1.73;;;9.10;99.90;;;;;;5051695;28;20456;-76
2023/12/09 02:12:25;;;;;;;3.72;1.85;;;9.10;99.90;;;;;;5052262;28;20032;-76
2023/12/09 02:14:58;;;;;;;5.50;3.85;;;9.20;99.90;;;;;;5051929;28;20029;-76
2023/12/09 02:17:46;;;;;;;1.05;0.95;;;9.10;99.90;;;;;;5052070;28;20037;-76
2023/12/09 02:20:12;;;;;;;3.25;1.17;;;9.10;99.90;;;;;;5051680;28;20037;-76
2023/12/09 02:22:38;;;;;;;5.15;2.35;;;9.20;99.90;;;;;;5052369;28;20041;-76
2023/12/09 02:25:04;;;;;;;5.38;1.85;;;9.10;99.90;;;;;;5055203;28;20028;-75
2023/12/09 02:27:54;;;;;;;12.38;1.63;;;9.00;99.90;;;;;;5055432;28;21745;-76
2023/12/09 02:30:35;;;;;;;13.63;2.28;;;9.10;99.90;;;;;;5054353;28;20071;-76
2023/12/09 02:33:04;;;;;;;16.13;1.98;;;9.00;99.90;;;;;;5055372;28;20102;-75
2023/12/09 02:35:35;;;;;;;3.25;0.98;;;9.00;99.90;;;;;;5055274;28;20132;-77
2023/12/09 02:38:02;;;;;;;0.38;0.38;;;9.00;99.90;;;;;;5055325;28;20116;-76
2023/12/09 02:40:29;;;;;;;0.10;0.10;;;9.10;99.90;;;;;;5054803;28;20045;-76
2023/12/09 02:42:56;;;;;;;0.25;0.25;;;9.00;99.90;;;;;;5055159;28;20021;-76
2023/12/09 02:45:22;;;;;;;8.13;2.55;;;9.10;99.90;;;;;;5055224;28;20060;-76
2023/12/09 02:47:47;;;;;;;6.70;2.35;;;9.10;99.90;;;;;;5055095;28;20045;-76
2023/12/09 02:50:14;;;;;;;0.47;0.47;;;9.10;99.90;;;;;;5054776;28;20052;-76
2023/12/09 02:52:40;;;;;;;6.82;1.77;;;9.10;99.90;;;;;;5055175;28;20021;-76
2023/12/09 02:55:07;;;;;;;1.38;0.60;;;9.00;99.90;;;;;;5054614;28;20170;-76
2023/12/09 02:57:33;;;;;;;4.15;1.40;;;9.00;99.90;;;;;;5054945;28;20385;-76
2023/12/09 02:59:59;;;;;;;10.30;3.05;;;9.00;99.90;;;;;;5054692;28;20567;-76
2023/12/09 03:02:25;;;;;;;5.15;0.70;;;8.90;99.90;;;;;;5054947;28;20032;-76
2023/12/09 03:04:51;;;;;;;3.65;1.60;;;9.00;99.90;;;;;;5054725;28;20021;-76
2023/12/09 03:07:20;;;;;;;15.90;4.00;;;8.90;99.90;;;;;;5054810;28;20175;-76
2023/12/09 03:09:48;;;;;;;3.20;1.33;;;9.00;99.90;;;;;;5054206;28;20021;-75
2023/12/09 03:12:14;;;;;;;2.92;2.33;;;9.00;99.90;;;;;;5054732;28;20039;-76
2023/12/09 03:14:40;;;;;;;1.08;0.98;;;9.00;99.90;;;;;;5056988;28;20486;-74
2023/12/09 03:17:05;;;;;;;5.72;1.75;;;8.90;99.90;;;;;;5053979;28;20033;-76
2023/12/09 03:19:31;;;;;;;7.03;2.40;;;9.00;99.90;;;;;;5052817;28;20029;-76
2023/12/09 03:21:58;;;;;;;7.75;3.03;;;9.00;99.90;;;;;;5054348;28;20037;-75
2023/12/09 03:24:25;;;;;;;8.75;2.78;;;9.00;99.90;;;;;;5054071;28;20124;-76
2023/12/09 03:26:51;;;;;;;7.32;3.45;;;9.00;99.90;;;;;;5054354;28;20029;-76
2023/12/09 03:29:18;;;;;;;10.05;3.58;;;9.10;99.90;;;;;;5054363;28;20497;-76
2023/12/09 03:31:43;;;;;;;28.27;3.83;;;9.10;99.90;;;;;;5053063;28;20017;-76
2023/12/09 03:34:09;;;;;;;2.63;1.65;;;9.00;99.90;;;;;;5053709;28;20389;-76
2023/12/09 03:36:35;;;;;;;32.22;6.78;;;9.00;99.90;;;;;;5054268;28;20071;-76
2023/12/09 03:39:01;;;;;;;1.60;1.48;;;9.00;99.90;;;;;;5036162;28;20048;-76
2023/12/09 03:41:27;;;;;;;12.95;3.15;;;9.00;99.90;;;;;;5052493;28;20048;-76
2023/12/09 03:43:52;;;;;;;19.98;3.45;;;9.00;99.90;;;;;;5052492;28;20036;-76
2023/12/09 03:46:18;;;;;;;6.43;2.42;;;9.00;99.90;;;;;;5055965;28;20037;-76
2023/12/09 03:48:44;;;;;;;13.77;3.05;;;9.00;99.90;;;;;;5062971;28;20021;-76
2023/12/09 03:51:10;;;;;;;17.33;5.80;;;9.00;99.90;;;;;;5064662;28;20048;-75
2023/12/09 03:53:35;;;;;;;0.50;0.32;;;9.00;99.90;;;;;;5049308;28;20021;-76
2023/12/09 03:56:01;;;;;;;6.32;2.70;;;9.00;99.90;;;;;;5073656;28;20040;-76
2023/12/09 03:58:27;;;;;;;27.20;3.63;;;9.00;99.90;;;;;;5073631;28;20024;-76
2023/12/09 04:00:53;;;;;;;13.55;2.83;;;9.00;99.90;;;;;;5058184;28;20476;-76
2023/12/09 04:03:18;;;;;;;6.72;4.18;;;9.10;99.90;;;;;;5072329;28;20377;-75
2023/12/09 04:05:45;;;;;;;4.20;2.20;;;9.10;99.90;;;;;;5073558;28;20040;-75
2023/12/09 04:08:11;;;;;;;6.22;1.98;;;9.10;99.90;;;;;;5073496;28;20103;-75
2023/12/09 04:10:37;;;;;;;4.40;2.17;;;9.10;99.90;;;;;;5072479;28;20034;-75
2023/12/09 04:13:02;;;;;;;0.65;0.65;;;9.10;99.90;;;;;;5072307;28;20052;-75
2023/12/09 04:15:29;;;;;;;12.25;3.47;;;9.10;99.90;;;;;;5055487;28;20025;-75
2023/12/09 04:17:55;;;;;;;59.97;7.43;;;9.00;99.90;;;;;;5059114;28;20546;-75
2023/12/09 04:20:20;;;;;;;5.20;2.55;;;9.00;99.90;;;;;;5073041;28;20040;-75
2023/12/09 04:22:47;;;;;;;9.98;2.53;;;9.10;99.90;;;;;;5073057;28;20068;-75
2023/12/09 04:25:13;;;;;;;15.10;3.28;;;9.10;99.90;;;;;;5073372;28;20073;-76
2023/12/09 04:27:39;;;;;;;13.10;3.30;;;9.10;99.90;;;;;;5073159;28;20040;-75
2023/12/09 04:30:05;;;;;;;8.90;5.40;;;9.10;99.90;;;;;;5073170;28;20017;-76
2023/12/09 04:32:32;;;;;;;4.07;1.73;;;9.10;99.90;;;;;;5073131;28;20477;-75
2023/12/09 04:34:58;;;;;;;14.25;4.85;;;9.10;99.90;;;;;;5072603;28;20028;-76
2023/12/09 04:37:25;;;;;;;15.32;4.50;;;9.20;99.90;;;;;;5072724;28;20020;-76
2023/12/09 04:39:51;;;;;;;12.45;6.00;;;9.30;99.90;;;;;;5072685;28;20028;-76
2023/12/09 04:42:18;;;;;;;28.17;4.10;;;9.30;99.90;;;;;;5071496;28;20430;-75
2023/12/09 04:44:44;;;;;;;0.70;0.70;;;9.30;99.90;;;;;;5071010;28;20020;-76
2023/12/09 04:47:10;;;;;;;9.55;2.80;;;9.30;99.90;;;;;;5072519;28;20123;-76
2023/12/09 04:49:35;;;;;;;4.45;1.92;;;9.40;99.90;;;;;;5072840;28;20021;-76
2023/12/09 04:52:01;;;;;;;0.63;0.63;;;9.40;99.90;;;;;;5058354;28;20538;-76
2023/12/09 04:54:27;;;;;;;20.35;5.97;;;9.50;99.90;;;;;;5072611;28;20546;-76
2023/12/09 04:56:53;;;;;;;27.50;3.97;;;9.50;99.90;;;;;;5072342;28;20028;-75
2023/12/09 04:59:18;;;;;;;16.77;4.75;;;9.60;99.90;;;;;;5071552;28;20393;-75
2023/12/09 05:01:45;;;;;;;6.13;2.47;;;9.50;99.90;;;;;;5072487;28;20040;-76
2023/12/09 05:04:11;;;;;;;6.97;2.42;;;9.50;99.90;;;;;;5072059;28;20028;-76
2023/12/09 05:06:37;;;;;;;9.18;3.22;;;9.40;99.90;;;;;;5072379;28;20103;-75
2023/12/09 05:09:03;;;;;;;5.75;3.15;;;9.50;99.90;;;;;;5072280;28;20465;-75
2023/12/09 05:11:29;;;;;;;15.90;4.32;;;9.50;99.90;;;;;;5072675;28;20020;-75
2023/12/09 05:13:54;;;;;;;6.25;2.65;;;9.60;99.90;;;;;;5072189;28;20431;-75
2023/12/09 05:16:20;;;;;;;5.22;2.40;;;9.60;99.90;;;;;;5071156;28;20389;-76
2023/12/09 05:18:46;;;;;;;18.10;7.10;;;9.60;99.90;;;;;;5070924;28;20384;-75
2023/12/09 05:21:12;;;;;;;5.82;3.28;;;9.60;99.90;;;;;;5072304;28;20048;-75
2023/12/09 05:23:38;;;;;;;8.27;2.45;;;9.60;99.90;;;;;;5072257;28;20084;-75
2023/12/09 05:26:04;;;;;;;12.85;4.30;;;9.60;99.90;;;;;;5072367;28;20099;-75
2023/12/09 05:28:30;;;;;;;21.00;5.88;;;9.60;99.90;;;;;;5070917;28;20429;-75
2023/12/09 05:30:57;;;;;;;2.05;1.90;;;9.70;99.90;;;;;;5072270;28;20024;-75
2023/12/09 05:33:23;;;;;;;13.75;4.40;;;9.70;99.90;;;;;;5071885;28;20029;-76
2023/12/09 05:35:49;;;;;;;12.57;5.90;;;9.70;99.90;;;;;;5072740;28;20033;-76
2023/12/09 05:38:15;;;;;;;14.00;3.22;;;9.70;99.90;;;;;;5070906;28;20479;-75
2023/12/09 05:40:40;;;;;;;7.82;4.97;;;9.70;99.90;;;;;;5072076;28;20107;-76
2023/12/09 05:43:06;;;;;;;7.88;3.83;;;9.70;99.90;;;;;;5072299;28;20024;-75
2023/12/09 05:45:32;;;;;;;17.13;6.85;;;9.70;99.90;;;;;;5071215;28;20021;-75
2023/12/09 05:47:58;;;;;;;26.48;8.23;;;9.70;99.90;;;;;;5071895;28;20395;-74
2023/12/09 05:50:24;;;;;;;16.90;6.53;;;9.70;99.90;;;;;;5068693;28;20025;-75
2023/12/09 05:52:50;;;;;;;1.55;1.45;;;9.60;99.90;;;;;;5061691;28;20031;-75
2023/12/09 05:55:16;;;;;;;0.60;0.60;;;9.70;99.90;;;;;;5072364;28;20021;-76
2023/12/09 05:57:43;;;;;;;3.97;1.42;;;9.70;99.90;;;;;;5074423;28;20115;-75
2023/12/09 06:00:10;;;;;;;16.90;5.72;;;9.80;99.90;;;;;;5074481;28;20036;-76
2023/12/09 06:02:36;;;;;;;4.70;2.78;;;9.80;99.90;;;;;;5054892;28;20387;-76
2023/12/09 06:05:03;;;;;;;8.55;3.45;;;9.70;99.90;;;;;;5065765;28;20066;-75
2023/12/09 06:07:28;;;;;;;21.25;3.65;;;9.70;99.90;;;;;;5057318;28;20354;-75
2023/12/09 06:09:54;;;;;;;2.92;2.30;;;9.80;99.90;;;;;;5055738;28;20040;-75
2023/12/09 06:12:20;;;;;;;8.00;4.47;;;9.80;99.90;;;;;;5055462;28;20049;-74
2023/12/09 06:14:46;;;;;;;24.75;5.80;;;9.80;99.90;;;;;;5055540;28;20104;-76
2023/12/09 06:17:12;;;;;;;13.35;1.45;;;9.70;99.90;;;;;;5055332;28;20040;-75
2023/12/09 06:19:38;;;;;;;10.02;3.50;;;9.80;99.90;;;;;;5055190;28;20056;-75
2023/12/09 06:22:03;;;;;;;9.02;2.95;;;9.80;99.90;;;;;;5055756;28;20086;-76
2023/12/09 06:24:29;;;;;;;7.60;3.17;;;9.70;99.90;;;;;;5055137;28;20050;-75
2023/12/09 06:26:55;;;;;;;4.22;3.47;;;9.80;99.90;;;;;;5047384;28;20367;-75
2023/12/09 06:29:21;;;;;;;23.98;2.58;;;9.80;99.90;;;;;;5050276;28;20036;-75
2023/12/09 06:31:46;;;;;;;9.20;1.20;;;9.70;99.90;;;;;;5047282;28;20061;-75
2023/12/09 06:34:12;;;;;;;1.83;0.73;;;9.80;99.90;;;;;;5049477;28;20104;-75
2023/12/09 06:36:38;;;;;;;4.82;2.08;;;9.80;99.90;;;;;;5055239;28;20105;-75
2023/12/09 06:39:04;;;;;;;7.43;3.80;;;9.80;99.90;;;;;;5055273;28;20085;-75
2023/12/09 06:41:30;;;;;;;3.60;2.25;;;9.70;99.90;;;;;;5054925;28;20099;-75
2023/12/09 06:43:56;;;;;;;4.25;2.05;;;9.70;99.90;;;;;;5054994;28;20025;-76
2023/12/09 06:46:21;;;;;;;8.00;3.40;;;9.80;99.90;;;;;;5053534;28;20029;-75
2023/12/09 06:48:47;;;;;;;6.72;3.65;;;9.80;99.90;;;;;;5055249;28;20021;-74
2023/12/09 06:51:16;;;;;;;15.20;2.75;;;9.80;99.90;;;;;;5051341;28;20428;-75
2023/12/09 06:53:42;;;;;;;5.90;2.53;;;9.90;99.90;;;;;;5070244;28;20024;-75
2023/12/09 06:56:17;;;;;;;40.50;5.40;;;9.80;99.90;;;;;;5075033;28;20082;-75
2023/12/09 06:58:43;;;;;;;2.45;1.42;;;9.90;99.90;;;;;;5074840;28;20056;-75
2023/12/09 07:01:09;;;;;;;10.95;0.90;;;9.90;99.90;;;;;;5074515;28;20141;-75
2023/12/09 07:03:37;;;;;;;3.83;1.58;;;9.90;99.90;;;;;;5073226;28;20024;-75
2023/12/09 07:06:04;;;;;;;19.48;2.25;;;9.80;99.90;;;;;;5074878;28;20035;-76
2023/12/09 07:08:30;;;;;;;3.90;2.28;;;9.90;99.90;;;;;;5074252;28;20023;-75
2023/12/09 07:10:59;;;;;;;21.17;2.30;;;9.90;99.90;;;;;;5073560;28;20520;-75
2023/12/09 07:13:25;;;;;;;4.78;1.35;;;9.90;99.90;;;;;;5074612;28;20028;-75
2023/12/09 07:15:51;;;;;;;5.50;2.63;;;10.00;99.90;;;;;;5073921;28;20079;-73
2023/12/09 07:18:17;;;;;;;16.52;3.83;;;10.00;99.90;;;;;;5074887;28;20029;-72
2023/12/09 07:20:43;;;;;;;0.30;0.30;;;9.90;99.90;;;;;;5073128;28;20112;-74
2023/12/09 07:23:08;;;;;;;0.88;0.40;;;9.90;99.90;;;;;;5070378;28;20146;-73
2023/12/09 07:25:34;;;;;;;2.72;0.80;;;9.90;99.90;;;;;;5074494;28;20397;-73
2023/12/09 07:28:00;;;;;;;8.60;1.48;;;10.00;99.90;;;;;;5063044;28;20111;-74
2023/12/09 07:30:26;;;;;;;4.47;2.22;;;9.90;99.90;;;;;;5074085;28;20409;-74
2023/12/09 07:32:51;;;;;;;5.90;2.30;;;10.00;99.90;;;;;;5074258;28;20032;-75
2023/12/09 07:35:17;;;;;;;0.93;0.28;;;10.00;99.90;;;;;;5074098;28;20121;-74
2023/12/09 07:37:44;;;;;;;3.58;1.70;;;10.00;99.90;;;;;;5072936;28;20033;-73
2023/12/09 07:40:11;;;;;;;3.65;2.17;;;10.00;99.90;;;;;;5073902;28;20032;-73
2023/12/09 07:42:38;;;;;;;0.40;0.40;;;10.10;99.90;;;;;;5074143;28;20043;-73
2023/12/09 07:45:04;;;;;;;3.90;1.30;;;10.10;99.90;;;;;;5073599;28;20077;-73
2023/12/09 07:47:30;;;;;;;0.73;0.73;;;10.10;99.90;;;;;;5073840;28;20125;-74
2023/12/09 07:49:56;;;;;;;6.60;1.65;;;10.10;99.90;;;;;;5072678;28;20070;-73
2023/12/09 07:52:22;;;;;;;0.75;0.57;;;10.10;99.90;;;;;;5059504;28;20051;-74
2023/12/09 07:54:48;;;;;;;15.00;2.08;;;10.10;99.90;;;;;;5057123;28;20445;-73
2023/12/09 07:57:14;;;;;;;13.00;2.20;;;10.10;99.90;;;;;;5056047;28;20032;-73
2023/12/09 07:59:40;;;;;;;2.53;0.90;;;10.10;99.90;;;;;;5053928;28;20059;-73
2023/12/09 08:02:06;;;;;;;6.57;2.13;;;10.10;99.90;;;;;;5065746;28;20099;-73
2023/12/09 08:04:31;;;;;;;7.75;1.92;;;10.10;99.90;;;;;;5065564;28;20055;-74
2023/12/09 08:06:57;;;;;;;9.02;1.27;;;10.20;99.90;;;;;;5063629;28;20023;-73
2023/12/09 08:09:23;;;;;;;7.57;2.38;;;10.10;99.90;;;;;;5045055;28;20036;-74
2023/12/09 08:11:49;;;;;;;4.95;0.52;;;10.10;99.90;;;;;;5051262;28;20021;-74
2023/12/09 08:14:14;;;;;;;2.45;1.33;;;10.10;99.90;;;;;;5063759;28;20024;-74
2023/12/09 08:16:40;;;;;;;0.63;0.52;;;10.10;99.90;;;;;;5065545;28;20020;-74
2023/12/09 08:19:06;;;;;;;0.10;0.10;;;10.20;99.90;;;;;;5059767;28;20461;-74
2023/12/09 08:21:36;;;;;;;1.25;0.38;;;10.20;99.90;;;;;;5054110;28;20032;-74
2023/12/09 08:24:02;;;;;;;1.08;0.95;;;10.20;99.90;;;;;;5052616;28;20032;-74
2023/12/09 08:26:28;;;;;;;8.23;1.33;;;10.20;99.90;;;;;;5064953;28;20082;-75
2023/12/09 08:28:55;;;;;;;3.42;0.65;;;10.30;99.90;;;;;;5062896;28;20437;-74
2023/12/09 08:31:21;;;;;;;0.95;0.75;;;10.30;99.90;;;;;;5056631;28;20056;-74
2023/12/09 08:33:47;;;;;;;0.10;0.10;;;10.20;99.90;;;;;;5052790;28;20040;-74
2023/12/09 08:36:14;;;;;;;13.18;4.38;;;10.30;99.90;;;;;;5063121;28;20017;-74
2023/12/09 08:38:39;;;;;;;2.33;0.90;;;10.30;99.90;;;;;;5045413;28;20111;-75
2023/12/09 08:41:05;;;;;;;0.05;0.05;;;10.30;99.90;;;;;;5062169;28;20112;-75
2023/12/09 08:43:31;;;;;;;2.78;1.00;;;10.40;99.90;;;;;;5053355;28;20492;-74
2023/12/09 08:45:57;;;;;;;2.47;1.13;;;10.40;99.90;;;;;;5052961;28;20043;-74
2023/12/09 08:48:24;;;;;;;4.43;1.60;;;10.40;99.90;;;;;;5058487;28;20025;-75
2023/12/09 08:50:50;;;;;;;2.55;0.95;;;10.30;99.90;;;;;;5065416;28;20470;-75
2023/12/09 08:53:16;;;;;;;24.77;3.97;;;10.30;99.90;;;;;;5072041;28;20063;-74
2023/12/09 08:55:42;;;;;;;2.28;1.10;;;10.30;99.90;;;;;;5067938;28;20096;-73
2023/12/09 08:58:08;;;;;;;11.90;1.92;;;10.30;99.90;;;;;;5067396;28;20029;-73
2023/12/09 09:00:33;;;;;;;2.72;1.17;;;10.40;99.90;;;;;;5071871;28;20020;-73
2023/12/09 09:02:59;;;;;;;14.60;2.47;;;10.30;99.90;;;;;;5070855;28;20520;-74
2023/12/09 09:05:25;;;;;;;1.52;1.17;;;10.40;99.90;;;;;;5070406;28;20127;-74
2023/12/09 09:07:51;;;;;;;1.45;0.73;;;10.50;99.90;;;;;;5070393;28;20074;-73
2023/12/09 09:10:18;;;;;;;6.75;0.43;;;10.50;99.90;;;;;;5069996;28;20035;-74
2023/12/09 09:12:46;;;;;;;5.32;1.98;;;10.50;99.90;;;;;;5054270;28;20113;-77
2023/12/09 09:15:12;;;;;;;0.10;0.03;;;10.50;99.90;;;;;;5054679;28;20028;-77
2023/12/09 09:17:41;;;;;;;0.47;0.47;;;10.60;99.90;;;;;;5071115;28;20489;-75
2023/12/09 09:20:10;;;;;;;0.40;0.40;;;10.70;99.90;;;;;;5072609;28;20554;-73
2023/12/09 09:22:36;;;;;;;3.72;0.70;;;10.70;99.90;;;;;;5072406;28;20040;-72
2023/12/09 09:25:02;;;;;;;1.52;1.20;;;10.70;99.90;;;;;;5070987;28;20362;-73
2023/12/09 09:27:28;;;;;;;8.02;1.40;;;10.70;99.90;;;;;;5071266;28;20056;-72
2023/12/09 09:29:54;;;;;;;0.25;0.20;;;10.70;99.90;;;;;;5072577;28;20064;-72
2023/12/09 09:32:20;;;;;;;4.43;0.90;;;10.70;99.90;;;;;;5075595;28;20036;-72
2023/12/09 09:34:46;;;;;;;7.57;1.17;;;10.60;99.90;;;;;;5076301;28;20031;-73
2023/12/09 09:37:12;;;;;;;10.48;1.15;;;10.60;99.90;;;;;;5077099;28;20024;-73
2023/12/09 09:39:38;;;;;;;10.90;2.88;;;10.60;99.90;;;;;;5076028;28;20042;-73
2023/12/09 09:42:32;;;;;;;7.13;1.35;;;10.60;99.90;;;;;;5076513;28;20032;-73
2023/12/09 09:45:21;;;;;;;2.75;1.58;;;10.50;99.90;;;;;;5076447;28;20540;-73
2023/12/09 09:47:51;;;;;;;9.55;1.45;;;10.50;99.90;;;;;;5076262;28;20071;-73
2023/12/09 09:50:21;;;;;;;0.30;0.30;;;10.50;99.90;;;;;;5073684;28;20477;-73
2023/12/09 09:52:48;;;;;;;6.18;0.57;;;10.50;99.90;;;;;;5058853;28;20046;-72
2023/12/09 09:55:15;;;;;;;1.75;1.23;;;10.60;99.90;;;;;;5068911;28;20044;-73
2023/12/09 09:57:42;;;;;;;2.63;1.38;;;10.50;99.90;;;;;;5067518;28;20055;-73
2023/12/09 10:00:19;;;;;;;0.45;0.45;;;10.50;99.90;;;;;;5070999;28;20068;-73
2023/12/09 10:02:51;;;;;;;2.45;1.25;;;10.50;99.90;;;;;;5048485;28;20033;-72
2023/12/09 10:05:17;;;;;;;;;;;10.40;99.90;;;;;;5071343;28;20045;-73
2023/12/09 10:07:44;;;;;;;0.30;0.30;;;10.50;99.90;;;;;;5065241;28;19909;-73
2023/12/09 10:10:11;;;;;;;1.02;1.00;;;10.40;99.90;;;;;;5060642;28;20021;-73
2023/12/09 10:12:37;;;;;;;1.40;0.98;;;10.50;99.90;;;;;;5055913;28;20017;-74
2023/12/09 10:15:03;;;;;;;40.53;1.75;;;10.40;99.90;;;;;;5066407;28;20021;-74
2023/12/09 10:17:30;;;;;;;4.82;1.35;;;10.40;99.90;;;;;;5056479;28;20040;-73
2023/12/09 10:20:00;;;;;;;3.53;1.17;;;10.40;99.90;;;;;;5063920;28;20024;-72
2023/12/09 10:22:26;;;;;;;2.22;0.73;;;10.40;99.90;;;;;;5059704;28;20060;-72
2023/12/09 10:24:53;;;;;;;0.75;0.65;;;10.40;99.90;;;;;;5066461;28;20017;-74
2023/12/09 10:27:24;;;;;;;2.83;0.65;;;10.40;99.90;;;;;;5065406;28;20064;-74
2023/12/09 10:29:54;;;;;;;0.90;0.38;;;10.40;99.90;;;;;;5065288;28;20021;-74
2023/12/09 10:32:21;;;;;;;0.95;0.75;;;10.40;99.90;;;;;;5069760;28;20033;-75
2023/12/09 10:34:50;;;;;;;4.57;1.05;;;10.40;99.90;;;;;;5063295;28;20044;-74
2023/12/09 10:37:17;;;;;;;0.47;0.40;;;10.40;99.90;;;;;;5072286;28;20082;-74
2023/12/09 10:39:44;;;;;;;2.80;1.58;;;10.40;99.90;;;;;;5066887;28;20017;-74
2023/12/09 10:42:10;;;;;;;0.75;0.43;;;10.40;99.90;;;;;;5066865;28;20060;-74
2023/12/09 10:44:36;;;;;;;1.35;0.85;;;10.40;99.90;;;;;;5064976;28;20487;-74
2023/12/09 10:47:03;;;;;;;1.08;0.90;;;10.40;99.90;;;;;;5066696;28;20024;-74
2023/12/09 10:49:30;;;;;;;1.10;0.88;;;10.40;99.90;;;;;;5072083;28;20108;-74
2023/12/09 10:51:56;;;;;;;1.10;0.60;;;10.50;99.90;;;;;;5046739;28;20586;-74
2023/12/09 10:54:22;;;;;;;0.85;0.85;;;10.40;99.90;;;;;;5063612;28;20036;-74
2023/12/09 10:56:49;;;;;;;7.43;0.95;;;10.40;99.90;;;;;;5072082;28;20017;-73
2023/12/09 10:59:17;;;;;;;7.10;0.60;;;10.40;99.90;;;;;;5071389;28;20488;-71
2023/12/09 11:01:45;;;;;;;2.15;1.15;;;10.40;99.90;;;;;;5055130;28;20048;-73
2023/12/09 11:04:12;;;;;;;0.77;0.77;;;10.40;99.90;;;;;;5069048;28;20025;-74
2023/12/09 11:06:40;;;;;;;6.07;0.77;;;10.40;99.90;;;;;;5073694;28;20477;-75
2023/12/09 11:09:07;;;;;;;0.30;0.30;;;10.40;99.90;;;;;;5061340;28;20556;-74
2023/12/09 11:11:39;;;;;;;8.93;0.57;;;10.40;99.90;;;;;;5065298;28;20013;-74
2023/12/09 11:14:07;;;;;;;7.10;1.95;;;10.40;99.90;;;;;;5058160;28;20033;-74
2023/12/09 11:16:33;;;;;;;5.00;1.17;;;10.40;99.90;;;;;;5070867;28;20074;-74
2023/12/09 11:18:59;;;;;;;0.45;0.40;;;10.40;99.90;;;;;;5073309;28;20500;-75
2023/12/09 11:21:27;;;;;;;2.70;0.98;;;10.50;99.90;;;;;;5073943;28;20435;-75
2023/12/09 11:23:55;;;;;;;2.00;0.50;;;10.40;99.90;;;;;;5072512;28;20524;-74
2023/12/09 11:26:29;;;;;;;12.15;1.83;;;10.40;99.90;;;;;;5073397;28;20024;-75
2023/12/09 11:28:57;;;;;;;2.65;1.48;;;10.50;99.90;;;;;;5074284;28;20060;-74
2023/12/09 11:31:36;;;;;;;1.15;0.70;;;10.50;99.90;;;;;;5072814;28;20025;-74
2023/12/09 11:34:06;;;;;;;2.58;0.95;;;10.50;99.90;;;;;;5065624;28;20032;-75
2023/12/09 11:36:38;;;;;;;3.28;1.30;;;10.50;99.90;;;;;;5053591;28;20374;-74
2023/12/09 11:39:20;;;;;;;2.13;0.93;;;10.50;99.90;;;;;;5053507;28;20116;-74
2023/12/09 11:41:47;;;;;;;3.63;0.75;;;10.60;99.90;;;;;;5051990;28;20459;-75
2023/12/09 11:44:14;;;;;;;0.90;0.57;;;10.60;99.90;;;;;;5053680;28;20025;-75
2023/12/09 11:46:40;;;;;;;3.60;0.40;;;10.60;99.90;;;;;;5053699;28;20346;-74
2023/12/09 11:49:06;;;;;;;2.42;0.88;;;10.50;99.90;;;;;;5053794;28;20087;-74
2023/12/09 11:51:34;;;;;;;0.77;0.60;;;10.40;99.90;;;;;;5053212;28;20386;-75
2023/12/09 11:54:07;;;;;;;0.08;0.08;;;10.40;99.90;;;;;;5072980;28;20384;-74
2023/12/09 11:56:33;;;;;;;;;;;10.40;99.90;;;;;;5072408;28;20427;-74
2023/12/09 11:58:59;;;;;;;3.75;0.45;;;10.40;99.90;;;;;;5072228;28;20254;-74
2023/12/09 12:01:27;;;;;;;2.17;1.00;;;10.40;99.90;;;;;;5072161;28;20396;-73
2023/12/09 12:03:53;;;;;;;1.75;0.52;;;10.30;99.90;;;;;;5064251;28;20036;-74
2023/12/09 12:06:23;;;;;;;3.92;2.80;;;10.30;99.90;;;;;;5037333;28;20025;-75
2023/12/09 12:08:51;;;;;;;1.30;0.73;;;10.30;99.90;;;;;;5061226;28;20377;-74
2023/12/09 12:11:20;;;;;;;1.48;1.08;;;10.40;99.90;;;;;;5061173;28;20090;-75
2023/12/09 12:13:46;;;;;;;1.10;1.00;;;10.40;99.90;;;;;;5065701;28;20081;-75
2023/12/09 12:16:12;;;;;;;2.15;0.95;;;10.30;99.90;;;;;;5051445;28;20049;-75
2023/12/09 12:18:38;;;;;;;2.08;0.65;;;10.40;99.90;;;;;;5062624;28;20044;-76
2023/12/09 12:21:05;;;;;;;1.48;0.68;;;10.40;99.90;;;;;;5060883;28;20069;-76
2023/12/09 12:23:32;;;;;;;1.33;0.45;;;10.40;99.90;;;;;;5043947;28;20021;-75
2023/12/09 12:25:57;;;;;;;0.43;0.43;;;10.40;99.90;;;;;;5053504;28;20031;-76
2023/12/09 12:28:24;;;;;;;0.20;0.15;;;10.40;99.90;;;;;;5069852;28;20021;-75
2023/12/09 12:30:54;;;;;;;0.65;0.50;;;10.30;99.90;;;;;;5070554;28;20082;-75
2023/12/09 12:33:24;;;;;;;0.95;0.70;;;10.30;99.90;;;;;;5052238;28;20441;-75
2023/12/09 12:35:54;;;;;;;2.20;0.45;;;10.30;99.90;;;;;;5067267;28;20056;-76
2023/12/09 12:38:25;;;;;;;0.38;0.35;;;10.40;99.90;;;;;;5059750;28;20529;-76
2023/12/09 12:40:52;;;;;;;0.50;0.50;;;10.40;99.90;;;;;;5063120;28;20177;-76
2023/12/09 12:43:19;;;;;;;0.20;0.20;;;10.50;99.90;;;;;;5051420;28;20748;-76
2023/12/09 12:45:52;;;;;;;8.77;0.75;;;10.50;99.90;;;;;;5053986;28;20112;-76
2023/12/09 12:48:19;;;;;;;1.77;0.55;;;10.50;99.90;;;;;;5062701;28;20026;-76